Time;durP1;ratioP1;P1;durP2;ratioP2;P2;SDS_P1;SDS_P2;PMS_P1;PMS_P2;Temp;Humidity;BMP_temperature;BMP_pressure;BME280_temperature;BME280_humidity;BME280_pressure;Samples;Min_cycle;Max_cycle;Signal;HPM_P1;HPM_P2
2023/01/27 00:00:24;;;;;;;3.67;0.20;;;;;;;2.88;100.00;102349.50;5080276;28;20024;-52
2023/01/27 00:02:49;;;;;;;1.80;0.28;;;;;;;2.92;100.00;102350.13;5083802;28;20024;-55
2023/01/27 00:05:15;;;;;;;2.10;0.25;;;;;;;2.92;100.00;102352.75;5081933;28;20039;-53
2023/01/27 00:07:44;;;;;;;2.17;0.55;;;;;;;2.94;100.00;102351.72;5083440;28;20040;-54
2023/01/27 00:10:14;;;;;;;0.65;0.28;;;;;;;3.02;100.00;102353.88;5081451;28;20036;-55
2023/01/27 00:15:24;;;;;;;1.80;0.13;;;;;;;3.25;100.00;102345.41;5076675;28;20035;-52
2023/01/27 00:17:49;;;;;;;7.00;0.65;;;;;;;3.30;100.00;102346.88;5081228;28;20388;-55
2023/01/27 00:25:49;;;;;;;1.40;0.30;;;;;;;3.11;100.00;102342.81;5074109;28;20130;-55
2023/01/27 00:28:21;;;;;;;1.55;0.20;;;;;;;3.00;100.00;102353.16;5072481;28;20032;-54
2023/01/27 00:30:50;;;;;;;0.50;0.10;;;;;;;2.91;100.00;102353.72;5079016;28;20036;-55
2023/01/27 00:33:25;;;;;;;1.65;0.00;;;;;;;2.91;100.00;102361.56;5078468;28;20066;-53
2023/01/27 00:35:57;;;;;;;3.97;0.10;;;;;;;3.07;100.00;102357.03;5084057;28;20024;-54
2023/01/27 00:38:22;;;;;;;0.20;0.10;;;;;;;3.15;100.00;102353.94;5081850;28;20507;-57
2023/01/27 00:41:14;;;;;;;2.35;0.30;;;;;;;3.25;100.00;102344.56;5077247;28;20036;-53
2023/01/27 00:43:33;;;;;;;0.47;0.08;;;;;;;3.37;100.00;102350.81;5077516;28;20134;-52
2023/01/27 00:45:59;;;;;;;1.02;0.10;;;;;;;3.30;100.00;102347.72;5084608;28;20027;-53
2023/01/27 00:48:24;;;;;;;3.50;1.63;;;;;;;3.34;100.00;102351.00;5078706;28;20417;-52
2023/01/27 00:50:49;;;;;;;2.17;0.32;;;;;;;3.42;100.00;102343.50;5084272;28;20103;-56
2023/01/27 00:53:15;;;;;;;1.40;0.43;;;;;;;3.34;100.00;102349.22;5077547;28;20102;-54
2023/01/27 00:55:40;;;;;;;3.78;0.22;;;;;;;3.31;100.00;102346.81;5084080;28;20027;-53
2023/01/27 00:58:06;;;;;;;2.28;0.30;;;;;;;3.24;100.00;102348.13;5081032;28;20040;-50
2023/01/27 01:00:31;;;;;;;1.20;0.40;;;;;;;3.26;100.00;102339.22;5083738;28;20020;-53
2023/01/27 01:02:56;;;;;;;2.80;0.38;;;;;;;3.39;100.00;102338.44;5079027;28;20028;-55
2023/01/27 01:05:21;;;;;;;3.60;1.25;;;;;;;3.47;100.00;102336.16;5085173;28;20071;-56
2023/01/27 01:07:47;;;;;;;2.33;0.20;;;;;;;3.58;100.00;102328.44;5084027;28;20058;-54
2023/01/27 01:10:12;;;;;;;2.42;0.17;;;;;;;3.60;100.00;102328.34;5078585;28;20028;-55
2023/01/27 01:12:37;;;;;;;0.95;0.08;;;;;;;3.60;100.00;102323.09;5087317;28;20064;-55
2023/01/27 01:15:03;;;;;;;2.03;0.17;;;;;;;3.59;100.00;102324.88;5080627;28;20035;-57
2023/01/27 01:17:29;;;;;;;0.35;0.05;;;;;;;3.60;100.00;102323.09;5082616;28;20036;-54
2023/01/27 01:19:54;;;;;;;5.38;0.10;;;;;;;3.61;100.00;102322.97;5081619;28;20405;-55
2023/01/27 01:22:19;;;;;;;1.90;0.43;;;;;;;3.57;100.00;102320.69;5071198;28;20112;-56
2023/01/27 01:24:45;;;;;;;1.65;0.60;;;;;;;3.55;100.00;102326.00;5082993;28;20063;-52
2023/01/27 01:27:10;;;;;;;0.77;0.40;;;;;;;3.55;100.00;102318.16;5076233;28;20032;-55
2023/01/27 01:29:35;;;;;;;0.35;0.20;;;;;;;3.67;100.00;102322.59;5075729;28;20136;-53
2023/01/27 01:32:01;;;;;;;1.23;0.13;;;;;;;3.71;100.00;102317.97;5082947;28;20032;-52
2023/01/27 01:34:26;;;;;;;1.38;0.15;;;;;;;3.76;100.00;102321.13;5074504;28;20042;-54
2023/01/27 01:36:51;;;;;;;1.38;0.17;;;;;;;3.70;100.00;102309.28;5075492;28;20032;-56
2023/01/27 01:39:17;;;;;;;0.20;0.20;;;;;;;3.78;100.00;102313.19;5082990;28;20020;-56
2023/01/27 01:41:42;;;;;;;2.53;0.30;;;;;;;3.86;100.00;102309.09;5083995;28;20506;-57
2023/01/27 01:44:29;;;;;;;2.95;0.20;;;;;;;3.88;100.00;102306.38;5077108;28;20431;-52
2023/01/27 01:46:55;;;;;;;4.97;0.40;;;;;;;3.89;100.00;102303.63;5077677;28;20046;-56
2023/01/27 01:49:25;;;;;;;1.17;0.13;;;;;;;3.88;100.00;102295.88;5083007;28;20036;-53
2023/01/27 01:51:57;;;;;;;2.17;0.32;;;;;;;3.91;100.00;102280.75;5076659;28;20030;-51
2023/01/27 01:54:28;;;;;;;0.20;0.10;;;;;;;3.97;100.00;102279.50;5075757;28;20035;-56
2023/01/27 01:56:56;;;;;;;6.38;1.55;;;;;;;4.18;100.00;102292.09;5080227;28;20099;-53
2023/01/27 01:59:28;;;;;;;0.65;0.10;;;;;;;4.15;100.00;102293.16;5082389;28;20036;-55
2023/01/27 02:01:56;;;;;;;2.03;0.10;;;;;;;4.20;100.00;102287.59;5081193;28;20615;-54
2023/01/27 02:04:25;;;;;;;0.57;0.10;;;;;;;4.07;100.00;102287.59;5084852;28;20039;-54
2023/01/27 02:07:06;;;;;;;0.70;0.38;;;;;;;4.11;100.00;102282.03;5086248;28;20040;-55
2023/01/27 02:09:31;;;;;;;3.33;0.20;;;;;;;4.12;100.00;102285.50;5081215;28;20028;-55
2023/01/27 02:11:57;;;;;;;2.72;0.60;;;;;;;4.08;100.00;102287.50;5082603;28;20020;-54
2023/01/27 02:14:24;;;;;;;3.00;0.28;;;;;;;3.97;100.00;102276.88;5078071;28;20062;-54
2023/01/27 02:16:49;;;;;;;0.77;0.10;;;;;;;3.92;100.00;102286.84;5083493;28;20016;-57
2023/01/27 02:19:37;;;;;;;1.08;0.20;;;;;;;3.85;100.00;102281.19;5087749;28;20081;-55
2023/01/27 02:22:09;;;;;;;3.25;0.25;;;;;;;3.90;100.00;102275.63;5084123;28;20028;-53
2023/01/27 02:24:44;;;;;;;5.10;0.60;;;;;;;4.02;100.00;102268.69;5084869;28;20538;-55
2023/01/27 02:27:09;;;;;;;0.75;0.30;;;;;;;3.78;100.00;102274.66;5083031;28;20024;-57
2023/01/27 02:29:34;;;;;;;1.65;0.22;;;;;;;3.82;100.00;102262.16;5081303;28;20028;-54
2023/01/27 02:32:00;;;;;;;1.73;0.60;;;;;;;3.80;100.00;102262.28;5077773;28;20115;-56
2023/01/27 02:34:29;;;;;;;4.47;0.17;;;;;;;3.65;100.00;102266.75;5080133;28;20108;-55
2023/01/27 02:36:59;;;;;;;3.05;0.45;;;;;;;3.43;100.00;102264.72;5081725;28;20020;-50
2023/01/27 02:39:30;;;;;;;5.13;0.43;;;;;;;3.36;100.00;102263.44;5087324;28;20031;-55
2023/01/27 02:41:57;;;;;;;1.45;0.35;;;;;;;3.31;100.00;102270.78;5095731;28;20101;-55
2023/01/27 02:44:23;;;;;;;6.75;1.60;;;;;;;3.40;100.00;102270.16;5084603;28;20035;-55
2023/01/27 02:46:48;;;;;;;7.03;0.95;;;;;;;3.45;100.00;102269.84;5083218;28;20103;-55
2023/01/27 02:49:14;;;;;;;1.95;0.63;;;;;;;3.46;100.00;102253.19;5080250;28;20032;-57
2023/01/27 02:51:40;;;;;;;1.75;0.47;;;;;;;3.43;100.00;102254.25;5088614;28;20070;-57
2023/01/27 02:54:05;;;;;;;1.70;0.73;;;;;;;3.42;100.00;102252.53;5083168;28;20553;-56
2023/01/27 02:56:31;;;;;;;0.98;0.55;;;;;;;3.41;100.00;102256.13;5088058;28;20118;-55
2023/01/27 02:58:56;;;;;;;4.75;0.45;;;;;;;3.42;100.00;102256.94;5078666;28;20027;-55
2023/01/27 03:01:23;;;;;;;6.13;1.55;;;;;;;3.38;100.00;102250.22;5087604;28;20049;-55
2023/01/27 03:03:50;;;;;;;1.67;0.80;;;;;;;3.32;100.00;102248.00;5080877;28;20036;-54
2023/01/27 03:06:16;;;;;;;0.80;0.50;;;;;;;3.33;100.00;102247.06;5082386;28;20036;-52
2023/01/27 03:08:41;;;;;;;3.15;1.35;;;;;;;3.27;100.00;102243.06;5093807;28;20085;-55
2023/01/27 03:11:08;;;;;;;8.00;1.63;;;;;;;3.32;100.00;102248.84;5082931;28;20032;-55
2023/01/27 03:13:35;;;;;;;3.85;0.90;;;;;;;3.39;100.00;102244.03;5089496;28;20028;-57
2023/01/27 03:18:48;;;;;;;2.40;1.48;;;;;;;3.48;100.00;102248.66;5075375;28;20039;-57
2023/01/27 03:21:15;;;;;;;1.27;0.50;;;;;;;3.61;100.00;102252.16;5075278;28;20028;-56
2023/01/27 03:23:41;;;;;;;2.08;0.93;;;;;;;3.61;100.00;102257.41;5090037;28;20035;-57
2023/01/27 03:26:08;;;;;;;1.40;0.98;;;;;;;3.72;100.00;102256.72;5077134;28;20025;-54
2023/01/27 03:28:34;;;;;;;3.92;1.75;;;;;;;3.78;100.00;102247.56;5084369;28;20043;-57
2023/01/27 03:31:05;;;;;;;3.03;2.08;;;;;;;3.86;100.00;102255.75;5084444;28;20024;-57
2023/01/27 03:33:31;;;;;;;2.33;1.42;;;;;;;3.81;100.00;102263.09;5082980;28;20103;-52
2023/01/27 03:46:53;;;;;;;5.72;1.35;;;;;;;3.53;100.00;102251.81;5082595;28;20548;-56
2023/01/27 03:49:19;;;;;;;2.97;1.58;;;;;;;3.52;100.00;102250.16;5075494;28;20082;-56
2023/01/27 03:51:44;;;;;;;2.03;1.30;;;;;;;3.42;100.00;102254.34;5078445;28;20031;-53
2023/01/27 03:54:10;;;;;;;1.48;1.10;;;;;;;3.35;100.00;102255.66;5077441;28;20035;-56
2023/01/27 03:56:35;;;;;;;1.85;0.98;;;;;;;3.36;100.00;102260.00;5075672;28;20032;-56
2023/01/27 03:59:00;;;;;;;5.25;1.77;;;;;;;3.40;100.00;102253.59;5074966;28;20038;-53
2023/01/27 04:01:26;;;;;;;3.10;2.20;;;;;;;3.51;100.00;102248.47;5082626;28;20499;-55
2023/01/27 04:06:55;;;;;;;3.25;1.73;;;;;;;3.58;100.00;102251.53;5077241;28;20071;-55
2023/01/27 04:09:29;;;;;;;3.50;2.20;;;;;;;3.60;100.00;102244.41;5077680;28;20061;-53
2023/01/27 04:11:57;;;;;;;5.07;2.47;;;;;;;3.63;100.00;102252.06;5082045;28;20545;-53
2023/01/27 04:14:33;;;;;;;4.13;1.92;;;;;;;3.67;100.00;102250.94;5079198;28;20441;-56
2023/01/27 04:17:00;;;;;;;3.15;1.95;;;;;;;3.64;100.00;102257.22;5077722;28;20031;-55
2023/01/27 04:19:26;;;;;;;2.85;1.95;;;;;;;3.52;100.00;102249.31;5071267;28;20037;-56
2023/01/27 04:21:52;;;;;;;5.43;2.53;;;;;;;3.61;100.00;102251.31;5083843;28;20038;-54
2023/01/27 04:24:23;;;;;;;4.97;2.80;;;;;;;3.65;100.00;102253.63;5074245;28;20389;-56
2023/01/27 04:26:53;;;;;;;;;;;;;;;3.69;100.00;102249.03;5074081;28;20027;-57
2023/01/27 04:29:20;;;;;;;3.10;1.70;;;;;;;3.65;100.00;102258.06;5076105;28;19920;-55
2023/01/27 04:31:45;;;;;;;3.25;2.08;;;;;;;3.70;100.00;102255.97;5080330;28;20314;-56
2023/01/27 04:34:11;;;;;;;3.63;2.72;;;;;;;3.70;100.00;102255.97;5085588;28;20043;-56
2023/01/27 04:36:38;;;;;;;5.32;3.10;;;;;;;3.70;100.00;102254.19;5077025;28;20034;-51
2023/01/27 04:39:03;;;;;;;2.45;2.13;;;;;;;3.80;100.00;102254.41;5084758;28;20073;-54
2023/01/27 04:41:29;;;;;;;6.20;2.40;;;;;;;3.82;100.00;102249.91;5080466;28;20127;-53
2023/01/27 04:43:54;;;;;;;5.95;3.42;;;;;;;3.82;100.00;102239.41;5081653;28;20187;-51
2023/01/27 04:46:19;;;;;;;6.05;3.10;;;;;;;3.98;100.00;102241.00;5073420;28;20024;-54
2023/01/27 04:48:45;;;;;;;5.75;2.55;;;;;;;4.02;100.00;102247.69;5091086;28;20031;-53
2023/01/27 04:51:10;;;;;;;6.25;2.50;;;;;;;4.00;100.00;102242.56;5071236;28;20427;-55
2023/01/27 04:53:35;;;;;;;6.85;2.15;;;;;;;3.97;100.00;102248.00;5087357;28;20052;-54
2023/01/27 04:56:04;;;;;;;4.03;2.33;;;;;;;3.89;100.00;102250.31;5080036;28;20493;-53
2023/01/27 04:58:30;;;;;;;5.18;3.65;;;;;;;3.87;100.00;102250.44;5079957;28;20035;-57
2023/01/27 05:00:55;;;;;;;7.47;3.67;;;;;;;3.80;100.00;102250.94;5083528;28;20094;-57
2023/01/27 05:03:20;;;;;;;5.82;2.17;;;;;;;3.64;100.00;102257.22;5081051;28;20040;-53
2023/01/27 05:05:46;;;;;;;2.40;1.75;;;;;;;3.52;100.00;102263.28;5078778;28;20024;-52
2023/01/27 05:08:11;;;;;;;2.75;2.22;;;;;;;3.52;100.00;102257.19;5077924;28;20040;-54
2023/01/27 05:10:36;;;;;;;3.72;2.35;;;;;;;3.58;100.00;102265.47;5079001;28;20024;-53
2023/01/27 05:13:02;;;;;;;4.43;2.35;;;;;;;3.61;100.00;102262.66;5079979;28;20025;-55
2023/01/27 05:15:29;;;;;;;4.85;3.17;;;;;;;3.62;100.00;102266.97;5074342;28;20024;-55
2023/01/27 05:17:54;;;;;;;3.15;2.00;;;;;;;3.67;100.00;102270.13;5085061;28;20067;-52
2023/01/27 05:20:20;;;;;;;5.07;1.73;;;;;;;3.85;100.00;102264.59;5081425;28;20043;-54
2023/01/27 05:22:46;;;;;;;2.65;1.92;;;;;;;3.93;100.00;102265.75;5077643;28;20029;-55
2023/01/27 05:25:11;;;;;;;2.03;1.70;;;;;;;3.89;100.00;102268.69;5075407;28;20028;-56
2023/01/27 05:27:36;;;;;;;5.47;1.23;;;;;;;3.85;100.00;102268.06;5086552;27;20553;-54
2023/01/27 05:30:02;;;;;;;2.20;1.98;;;;;;;3.84;100.00;102268.97;5087110;28;20050;-57
2023/01/27 05:32:27;;;;;;;1.45;1.35;;;;;;;3.89;100.00;102266.06;5082873;28;20110;-54
2023/01/27 05:34:53;;;;;;;3.08;1.40;;;;;;;3.94;100.00;102271.81;5090700;28;20032;-55
2023/01/27 05:37:18;;;;;;;3.28;1.33;;;;;;;3.96;100.00;102271.75;5083027;28;20408;-56
2023/01/27 05:39:43;;;;;;;2.03;1.60;;;;;;;3.93;100.00;102273.63;5079980;28;20023;-58
2023/01/27 05:42:09;;;;;;;2.63;1.42;;;;;;;3.98;100.00;102278.56;5083842;28;20123;-53
2023/01/27 05:44:34;;;;;;;3.10;2.15;;;;;;;3.96;100.00;102256.81;5085092;28;20052;-58
2023/01/27 05:47:00;;;;;;;2.50;1.65;;;;;;;3.82;100.00;102259.53;5090608;28;20484;-55
2023/01/27 05:49:25;;;;;;;3.38;1.55;;;;;;;3.76;100.00;102270.44;5084624;28;20017;-57
2023/01/27 05:51:50;;;;;;;2.50;1.15;;;;;;;3.59;100.00;102266.31;5083369;28;20032;-55
2023/01/27 05:54:16;;;;;;;1.23;1.13;;;;;;;3.40;100.00;102270.16;5081759;28;20529;-54
2023/01/27 05:56:41;;;;;;;3.17;1.10;;;;;;;3.42;100.00;102273.53;5088480;28;20039;-56
2023/01/27 05:59:07;;;;;;;1.60;1.50;;;;;;;3.39;100.00;102271.09;5086553;28;20078;-56
2023/01/27 06:01:34;;;;;;;2.58;1.67;;;;;;;3.20;100.00;102279.34;5082419;28;20501;-57
2023/01/27 06:04:00;;;;;;;1.90;1.15;;;;;;;3.00;100.00;102282.38;5086025;28;20028;-51
2023/01/27 06:06:27;;;;;;;2.60;1.20;;;;;;;2.93;100.00;102291.56;5087178;28;20024;-54
2023/01/27 06:08:53;;;;;;;1.27;0.98;;;;;;;2.94;100.00;102285.38;5090902;28;20097;-56
2023/01/27 06:11:20;;;;;;;4.07;0.68;;;;;;;2.99;100.00;102285.94;5087715;28;20078;-56
2023/01/27 06:13:46;;;;;;;3.35;0.88;;;;;;;3.01;100.00;102277.03;5091089;28;20519;-56
2023/01/27 06:16:16;;;;;;;3.35;1.33;;;;;;;3.15;100.00;102286.66;5091704;28;20134;-51
2023/01/27 06:18:41;;;;;;;3.83;0.82;;;;;;;3.26;100.00;102278.09;5087656;27;20409;-52
2023/01/27 06:21:09;;;;;;;1.77;1.00;;;;;;;3.39;100.00;102289.47;5076872;28;20038;-51
2023/01/27 06:23:35;;;;;;;1.13;0.93;;;;;;;3.44;100.00;102278.69;5085466;28;20088;-57
2023/01/27 06:26:08;;;;;;;0.75;0.75;;;;;;;3.49;100.00;102284.47;5080672;28;20161;-53
2023/01/27 06:28:34;;;;;;;1.60;0.60;;;;;;;3.49;100.00;102284.47;5082940;28;20036;-52
2023/01/27 06:31:08;;;;;;;1.40;0.68;;;;;;;3.51;100.00;102279.94;5077004;28;20057;-52
2023/01/27 06:33:33;;;;;;;2.13;1.25;;;;;;;3.62;100.00;102280.09;5091877;28;20039;-55
2023/01/27 06:36:04;;;;;;;2.90;1.38;;;;;;;3.68;100.00;102284.91;5082440;28;20046;-54
2023/01/27 06:38:30;;;;;;;2.55;1.45;;;;;;;3.74;100.00;102281.03;5086228;28;20028;-52
2023/01/27 06:40:55;;;;;;;0.90;0.75;;;;;;;3.70;100.00;102276.94;5080244;28;20039;-55
2023/01/27 06:43:21;;;;;;;1.23;1.10;;;;;;;3.59;100.00;102275.03;5079272;28;20025;-56
2023/01/27 06:45:50;;;;;;;1.42;1.33;;;;;;;3.57;100.00;102292.66;5087471;28;20390;-55
2023/01/27 06:48:15;;;;;;;2.80;1.20;;;;;;;3.56;100.00;102280.47;5083299;28;20035;-52
2023/01/27 06:50:41;;;;;;;2.38;0.90;;;;;;;3.54;100.00;102294.63;5081709;28;20032;-56
2023/01/27 06:53:06;;;;;;;4.88;0.65;;;;;;;3.53;100.00;102295.59;5088109;28;20070;-54
2023/01/27 06:55:32;;;;;;;4.03;0.40;;;;;;;3.46;100.00;102298.63;5079931;28;20023;-56
2023/01/27 06:57:59;;;;;;;2.30;0.43;;;;;;;3.52;100.00;102300.00;5084758;28;20147;-50
2023/01/27 07:00:25;;;;;;;1.38;1.00;;;;;;;3.65;100.00;102290.38;5083906;28;20032;-57
2023/01/27 07:02:52;;;;;;;3.88;1.13;;;;;;;3.81;100.00;102292.81;5089094;28;20766;-51
2023/01/27 07:05:17;;;;;;;2.42;1.25;;;;;;;3.87;100.00;102299.41;5073653;28;20025;-54
2023/01/27 07:07:43;;;;;;;5.97;1.02;;;;;;;4.00;100.00;102292.44;5081462;28;20028;-54
2023/01/27 07:10:09;;;;;;;4.32;0.80;;;;;;;4.05;100.00;102294.72;5082311;28;20041;-53
2023/01/27 07:12:36;;;;;;;4.35;1.10;;;;;;;3.99;100.00;102289.91;5082651;28;20094;-50
2023/01/27 07:15:04;;;;;;;2.88;0.50;;;;;;;4.00;100.00;102302.06;5084835;28;20381;-56
2023/01/27 07:17:29;;;;;;;1.65;0.68;;;;;;;3.91;100.00;102301.75;5073178;28;20059;-52
2023/01/27 07:19:54;;;;;;;7.20;1.17;;;;;;;3.77;100.00;102296.59;5074248;28;20063;-52
2023/01/27 07:22:20;;;;;;;3.72;1.13;;;;;;;3.66;100.00;102294.66;5078528;28;20040;-53
2023/01/27 07:24:45;;;;;;;7.22;2.45;;;;;;;3.61;100.00;102296.75;5072735;28;20339;-53
2023/01/27 07:27:10;;;;;;;1.55;0.45;;;;;;;3.65;100.00;102298.25;5077725;28;20067;-51
2023/01/27 07:29:36;;;;;;;13.32;1.83;;;;;;;3.64;100.00;102306.19;5071984;28;20304;-54
2023/01/27 07:32:01;;;;;;;2.40;0.35;;;;;;;3.62;100.00;102301.06;5080404;28;20051;-55
2023/01/27 07:34:26;;;;;;;0.98;0.35;;;;;;;3.70;100.00;102303.19;5081907;28;20078;-51
2023/01/27 07:36:52;;;;;;;7.15;2.60;;;;;;;3.69;100.00;102302.34;5081210;28;20055;-52
2023/01/27 07:39:17;;;;;;;4.38;0.80;;;;;;;3.71;100.00;102307.47;5084846;28;20098;-53
2023/01/27 07:41:42;;;;;;;4.28;0.93;;;;;;;3.71;100.00;102307.47;5079200;28;20040;-52
2023/01/27 07:44:09;;;;;;;3.30;0.60;;;;;;;3.63;100.00;102302.75;5077291;28;20405;-54
2023/01/27 07:46:34;;;;;;;4.63;0.73;;;;;;;3.67;100.00;102306.84;5079069;28;20020;-54
2023/01/27 07:48:59;;;;;;;2.22;0.70;;;;;;;3.67;100.00;102324.38;5074078;28;20064;-55
2023/01/27 07:51:25;;;;;;;6.85;0.47;;;;;;;3.67;100.00;102304.22;5072735;28;20044;-55
2023/01/27 07:53:50;;;;;;;10.25;1.02;;;;;;;3.67;100.00;102311.28;5073811;28;20508;-56
2023/01/27 07:56:16;;;;;;;5.18;0.73;;;;;;;3.75;100.00;102308.97;5080769;28;20028;-55
2023/01/27 07:58:42;;;;;;;3.35;0.82;;;;;;;3.74;100.00;102303.81;5074966;28;20115;-54
2023/01/27 08:01:09;;;;;;;9.45;2.28;;;;;;;3.78;100.00;102300.06;5074117;28;20276;-53
2023/01/27 08:03:36;;;;;;;2.05;0.50;;;;;;;3.74;100.00;102294.16;5078051;28;20105;-54
2023/01/27 08:06:07;;;;;;;1.90;0.70;;;;;;;3.76;100.00;102296.69;5083217;28;20036;-56
2023/01/27 08:08:32;;;;;;;1.15;0.45;;;;;;;3.79;100.00;102297.31;5071544;28;20458;-54
2023/01/27 08:10:59;;;;;;;2.15;0.50;;;;;;;3.81;100.00;102297.22;5082363;28;20433;-54
2023/01/27 08:13:25;;;;;;;6.80;0.73;;;;;;;3.87;100.00;102296.78;5078391;28;20089;-56
2023/01/27 08:16:00;;;;;;;8.98;0.70;;;;;;;3.87;100.00;102308.16;5082245;28;20026;-54
2023/01/27 08:18:28;;;;;;;1.73;0.47;;;;;;;3.87;100.00;102295.03;5078939;28;20023;-53
2023/01/27 08:20:54;;;;;;;2.05;0.47;;;;;;;3.95;100.00;102310.28;5081092;28;20485;-54
2023/01/27 08:23:21;;;;;;;7.70;0.90;;;;;;;4.00;100.00;102305.56;5083306;28;20085;-51
2023/01/27 08:25:57;;;;;;;2.95;0.57;;;;;;;3.98;100.00;102312.69;5087471;28;20028;-51
2023/01/27 08:28:24;;;;;;;1.65;0.80;;;;;;;4.10;100.00;102314.47;5074905;28;20023;-55
2023/01/27 08:30:52;;;;;;;0.85;0.40;;;;;;;4.17;100.00;102321.94;5071737;28;20112;-55
2023/01/27 08:33:22;;;;;;;3.65;0.82;;;;;;;4.20;100.00;102321.72;5080563;28;20031;-52
2023/01/27 08:35:49;;;;;;;6.63;0.15;;;;;;;4.29;100.00;102323.75;5080052;28;20030;-52
2023/01/27 08:38:17;;;;;;;3.70;0.93;;;;;;;4.32;100.00;102334.84;5076513;28;20099;-56
2023/01/27 08:40:44;;;;;;;3.88;0.70;;;;;;;4.36;100.00;102332.84;5081732;28;20042;-53
2023/01/27 08:43:09;;;;;;;1.70;0.75;;;;;;;4.44;100.00;102320.06;5086218;28;20048;-57
2023/01/27 08:45:36;;;;;;;5.22;0.88;;;;;;;4.53;100.00;102324.66;5080987;28;20032;-53
2023/01/27 08:48:03;;;;;;;7.15;2.53;;;;;;;4.64;100.00;102333.59;5084304;28;20546;-52
2023/01/27 08:50:29;;;;;;;6.00;1.35;;;;;;;4.59;100.00;102326.88;5086594;28;20042;-56
2023/01/27 08:52:57;;;;;;;1.70;0.70;;;;;;;4.70;100.00;102330.50;5080970;28;20020;-52
2023/01/27 08:55:30;;;;;;;5.43;0.55;;;;;;;4.82;100.00;102330.50;5086489;28;20024;-53
2023/01/27 08:57:55;;;;;;;2.85;0.40;;;;;;;4.82;100.00;102333.13;5081203;28;20693;-54
2023/01/27 09:00:21;;;;;;;2.83;0.20;;;;;;;4.87;100.00;102327.53;5083817;28;20024;-56
2023/01/27 09:02:47;;;;;;;4.97;0.70;;;;;;;4.93;100.00;102329.75;5084634;28;20023;-53
2023/01/27 09:05:12;;;;;;;4.18;1.20;;;;;;;4.98;100.00;102338.16;5085636;28;20036;-52
2023/01/27 09:07:38;;;;;;;3.42;0.63;;;;;;;5.05;100.00;102345.59;5076208;28;20021;-54
2023/01/27 09:10:05;;;;;;;1.60;0.40;;;;;;;5.10;100.00;102333.81;5077208;28;20492;-56
2023/01/27 09:12:30;;;;;;;4.32;0.70;;;;;;;5.12;100.00;102341.59;5074892;28;20031;-53
2023/01/27 09:14:57;;;;;;;7.07;2.17;;;;;;;5.16;100.00;102333.38;5076369;28;20032;-53
2023/01/27 09:17:23;;;;;;;4.00;0.20;;;;;;;5.22;100.00;102338.19;5080621;28;20032;-52
2023/01/27 09:19:49;;;;;;;5.75;1.30;;;;;;;5.25;100.00;102337.13;5083485;28;20033;-54
2023/01/27 09:22:14;;;;;;;6.35;0.30;;;;;;;4.89;100.00;102344.06;5087762;28;20024;-56
2023/01/27 09:24:39;;;;;;;8.52;0.40;;;;;;;4.93;100.00;102345.53;5092854;28;20032;-53
2023/01/27 09:27:05;;;;;;;2.13;0.95;;;;;;;5.06;100.00;102348.13;5077760;28;20537;-52
2023/01/27 09:29:30;;;;;;;2.92;0.45;;;;;;;5.15;100.00;102342.19;5090028;28;20028;-54
2023/01/27 09:31:56;;;;;;;9.45;1.13;;;;;;;5.24;100.00;102341.56;5094561;28;20047;-53
2023/01/27 09:34:21;;;;;;;1.65;0.85;;;;;;;5.33;100.00;102349.72;5077776;28;20096;-52
2023/01/27 09:36:53;;;;;;;5.93;0.50;;;;;;;5.37;100.00;102346.75;5076007;28;20035;-55
2023/01/27 09:39:19;;;;;;;4.55;0.75;;;;;;;5.43;100.00;102348.94;5087609;28;20123;-56
2023/01/27 09:42:06;;;;;;;3.13;0.50;;;;;;;5.44;100.00;102347.97;5087255;28;20040;-52
2023/01/27 09:44:53;;;;;;;7.25;0.77;;;;;;;5.39;100.00;102344.00;5092855;28;20042;-54
2023/01/27 09:47:30;;;;;;;4.47;0.60;;;;;;;5.55;100.00;102359.50;5083218;28;20383;-56
2023/01/27 09:50:22;;;;;;;5.30;0.45;;;;;;;5.62;100.00;102351.06;5090652;28;20021;-54
2023/01/27 09:52:58;;;;;;;3.60;0.35;;;;;;;5.63;100.00;102354.56;5084139;28;20032;-52
2023/01/27 09:56:01;;;;;;;3.83;1.35;;;;;;;5.71;100.00;102340.81;5083679;28;20024;-56
2023/01/27 09:58:45;;;;;;;6.13;0.43;;;;;;;5.87;100.00;102342.19;5082557;28;20050;-50
2023/01/27 10:01:24;;;;;;;6.10;0.55;;;;;;;6.04;100.00;102340.09;5086915;28;20043;-54
2023/01/27 10:03:59;;;;;;;5.50;0.73;;;;;;;6.00;100.00;102343.94;5080513;28;20032;-52
2023/01/27 10:06:30;;;;;;;4.88;0.47;;;;;;;6.03;100.00;102354.22;5080081;28;20024;-54
2023/01/27 10:08:58;;;;;;;4.90;1.00;;;;;;;6.13;100.00;102352.59;5080816;28;20047;-52
2023/01/27 10:11:44;;;;;;;9.02;1.77;;;;;;;6.23;100.00;102364.09;5085923;28;20027;-53
2023/01/27 10:14:22;;;;;;;3.55;0.85;;;;;;;6.27;100.00;102362.06;5088749;28;20032;-55
2023/01/27 10:17:08;;;;;;;1.85;0.68;;;;;;;6.23;100.00;102365.91;5079768;28;20446;-55
2023/01/27 10:19:34;;;;;;;7.78;1.73;;;;;;;5.83;100.00;102374.94;5083008;28;20063;-53
2023/01/27 10:22:04;;;;;;;6.25;0.93;;;;;;;5.83;100.00;102364.41;5086344;28;20063;-57
2023/01/27 10:24:38;;;;;;;6.03;0.75;;;;;;;5.76;100.00;102373.75;5085464;28;20134;-51
2023/01/27 10:27:17;;;;;;;3.10;0.75;;;;;;;5.82;100.00;102377.72;5090441;28;20035;-52
2023/01/27 10:29:54;;;;;;;3.70;1.05;;;;;;;5.85;100.00;102366.94;5079821;28;20020;-50
2023/01/27 10:32:44;;;;;;;7.10;0.85;;;;;;;5.90;100.00;102370.91;5078848;28;20039;-53
2023/01/27 10:35:35;;;;;;;8.73;2.08;;;;;;;5.98;100.00;102366.91;5077906;28;20035;-55
2023/01/27 10:38:16;;;;;;;3.63;0.52;;;;;;;5.96;100.00;102363.53;5087826;28;20054;-53
2023/01/27 10:40:55;;;;;;;6.55;0.68;;;;;;;6.01;100.00;102366.66;5079731;28;20036;-52
2023/01/27 10:43:30;;;;;;;5.38;0.43;;;;;;;6.07;100.00;102371.50;5085508;28;20460;-55
2023/01/27 10:46:06;;;;;;;7.10;1.80;;;;;;;6.16;100.00;102365.53;5085828;28;20035;-54
2023/01/27 10:48:50;;;;;;;4.53;1.25;;;;;;;6.32;100.00;102357.28;5093103;28;20039;-54
2023/01/27 10:51:36;;;;;;;5.72;1.45;;;;;;;6.42;100.00;102352.16;5080971;28;20506;-54
2023/01/27 10:54:12;;;;;;;4.03;0.40;;;;;;;6.49;100.00;102345.47;5079391;28;20081;-54
2023/01/27 10:56:55;;;;;;;3.80;1.50;;;;;;;6.52;100.00;102345.22;5086026;28;20031;-54
2023/01/27 10:59:49;;;;;;;4.43;0.73;;;;;;;6.66;100.00;102346.78;5091661;28;20031;-53
2023/01/27 11:02:36;;;;;;;2.45;2.25;;;;;;;6.69;100.00;102336.00;5071464;28;20027;-57
2023/01/27 11:05:09;;;;;;;18.05;1.45;;;;;;;6.65;100.00;102345.09;5083254;28;20474;-56
2023/01/27 11:07:46;;;;;;;2.83;0.95;;;;;;;6.80;100.00;102330.72;5075399;28;20021;-52
2023/01/27 11:10:20;;;;;;;3.83;0.22;;;;;;;6.73;100.00;102327.72;5072377;28;20033;-55
2023/01/27 11:12:53;;;;;;;0.52;0.52;;;;;;;6.78;100.00;102325.56;5083310;28;20048;-53
2023/01/27 11:15:29;;;;;;;4.47;0.38;;;;;;;7.00;100.00;102315.97;5068400;28;20387;-52
2023/01/27 11:18:10;;;;;;;7.22;0.70;;;;;;;6.97;100.00;102329.41;5079246;28;20322;-50
2023/01/27 11:20:42;;;;;;;3.53;0.38;;;;;;;6.88;100.00;102315.13;5088188;28;20468;-53
2023/01/27 11:23:18;;;;;;;5.25;0.80;;;;;;;6.88;100.00;102312.50;5093863;28;20611;-50
2023/01/27 11:25:52;;;;;;;2.10;0.47;;;;;;;6.80;100.00;102314.06;5072109;28;20036;-53
2023/01/27 11:28:55;;;;;;;4.45;1.10;;;;;;;6.81;100.00;102318.38;5075947;28;20051;-53
2023/01/27 11:31:28;;;;;;;3.17;1.20;;;;;;;6.81;100.00;102310.47;5084524;28;20056;-50
2023/01/27 11:34:02;;;;;;;1.13;0.10;;;;;;;6.74;100.00;102312.75;5083732;28;20579;-52
2023/01/27 11:36:28;;;;;;;7.68;0.93;;;;;;;6.87;100.00;102308.19;5085385;28;20031;-53
2023/01/27 11:38:56;;;;;;;3.25;0.10;;;;;;;6.88;100.00;102296.66;5082569;28;20107;-56
2023/01/27 11:41:23;;;;;;;3.60;0.10;;;;;;;6.86;100.00;102305.66;5082058;28;20090;-51
2023/01/27 11:43:48;;;;;;;4.47;0.45;;;;;;;6.93;100.00;102291.88;5073424;28;20382;-53
2023/01/27 11:46:20;;;;;;;2.05;0.20;;;;;;;7.00;100.00;102292.22;5074754;28;20038;-52
2023/01/27 11:48:47;;;;;;;;;;;;;;;7.12;100.00;102278.03;5075482;28;20060;-52
2023/01/27 11:51:19;;;;;;;3.42;1.33;;;;;;;7.08;100.00;102283.69;5083100;28;19920;-55
2023/01/27 11:53:49;;;;;;;1.48;1.38;;;;;;;7.06;100.00;102289.09;5081146;28;20096;-54
2023/01/27 11:56:17;;;;;;;2.97;0.30;;;;;;;7.09;100.00;102291.47;5075615;28;20028;-56
2023/01/27 11:59:00;;;;;;;7.28;1.05;;;;;;;7.09;100.00;102285.34;5083813;28;20024;-56